createdAt,value
2023-01-07T00:01:17.592Z,4.43
2023-01-07T00:03:44.918Z,1.55
2023-01-07T00:06:33.216Z,1.70
2023-01-07T00:09:01.369Z,3.10
2023-01-07T00:11:33.370Z,2.67
2023-01-07T00:14:01.238Z,1.85
2023-01-07T00:16:30.168Z,1.77
2023-01-07T00:18:58.800Z,2.78
2023-01-07T00:21:26.504Z,3.67
2023-01-07T00:23:58.678Z,2.03
2023-01-07T00:26:29.778Z,1.70
2023-01-07T00:28:57.939Z,2.28
2023-01-07T00:31:27.067Z,2.53
2023-01-07T00:33:54.045Z,2.40
2023-01-07T00:36:28.736Z,2.05
2023-01-07T00:39:01.172Z,2.38
2023-01-07T00:41:28.135Z,3.50
2023-01-07T00:43:55.070Z,2.92
2023-01-07T00:46:22.310Z,2.78
2023-01-07T00:48:49.173Z,2.60
2023-01-07T00:51:16.756Z,2.40
2023-01-07T00:53:43.656Z,3.25
2023-01-07T00:56:11.391Z,2.13
2023-01-07T00:58:38.220Z,2.25
2023-01-07T01:01:05.338Z,2.83
2023-01-07T01:03:33.489Z,3.35
2023-01-07T01:06:08.331Z,2.83
2023-01-07T01:08:35.752Z,2.58
2023-01-07T01:11:04.476Z,3.35
2023-01-07T01:13:30.994Z,1.98
2023-01-07T01:15:57.828Z,1.95
2023-01-07T01:18:24.352Z,4.07
2023-01-07T01:20:50.906Z,1.70
2023-01-07T01:23:17.484Z,2.20
2023-01-07T01:25:43.972Z,2.33
2023-01-07T01:28:10.514Z,1.63
2023-01-07T01:30:37.076Z,1.60
2023-01-07T01:33:03.682Z,3.03
2023-01-07T01:35:30.171Z,3.35
2023-01-07T01:37:56.812Z,2.63
2023-01-07T01:40:23.287Z,1.90
2023-01-07T01:42:49.828Z,2.28
2023-01-07T01:45:16.346Z,3.42
2023-01-07T01:47:51.517Z,1.77
2023-01-07T01:50:23.734Z,3.65
2023-01-07T01:52:57.015Z,2.22
2023-01-07T01:55:30.045Z,2.50
2023-01-07T01:58:00.992Z,2.30
2023-01-07T02:00:28.638Z,2.13
2023-01-07T02:02:58.803Z,2.25
2023-01-07T02:05:30.288Z,2.55
2023-01-07T02:07:56.924Z,3.13
2023-01-07T02:10:24.784Z,2.28
2023-01-07T02:13:17.383Z,1.98
2023-01-07T02:16:32.878Z,2.03
2023-01-07T02:19:15.813Z,4.68
2023-01-07T02:22:20.896Z,2.65
2023-01-07T02:24:47.324Z,2.28
2023-01-07T02:27:48.943Z,1.58
2023-01-07T02:30:33.945Z,3.15
2023-01-07T02:33:14.963Z,2.65
2023-01-07T02:35:55.571Z,2.85
2023-01-07T02:39:14.756Z,3.90
2023-01-07T02:41:50.256Z,2.65
2023-01-07T02:44:29.622Z,1.77
2023-01-07T02:47:13.867Z,2.40
2023-01-07T02:49:40.519Z,3.03
2023-01-07T02:52:27.490Z,2.30
2023-01-07T02:55:01.932Z,1.80
2023-01-07T02:57:49.994Z,3.00
2023-01-07T03:00:38.496Z,3.05
2023-01-07T03:03:25.760Z,2.45
2023-01-07T03:05:58.375Z,2.78
2023-01-07T03:08:44.304Z,2.50
2023-01-07T03:11:12.291Z,1.95
2023-01-07T03:13:49.050Z,2.75
2023-01-07T03:16:24.694Z,2.22
2023-01-07T03:19:02.626Z,1.75
2023-01-07T03:21:32.855Z,3.25
2023-01-07T03:24:01.036Z,3.70
2023-01-07T03:26:33.211Z,3.95
2023-01-07T03:29:01.765Z,3.05
2023-01-07T03:31:29.754Z,3.00
2023-01-07T03:34:10.317Z,2.22
2023-01-07T03:36:41.069Z,2.95
2023-01-07T03:39:10.882Z,3.13
2023-01-07T03:41:59.069Z,3.17
2023-01-07T03:44:25.868Z,3.25
2023-01-07T03:46:53.005Z,2.75
2023-01-07T03:49:19.756Z,3.50
2023-01-07T03:51:46.662Z,3.53
2023-01-07T03:54:13.455Z,4.03
2023-01-07T03:56:39.984Z,4.00
2023-01-07T03:59:06.550Z,3.88
2023-01-07T04:01:33.222Z,3.55
2023-01-07T04:04:02.363Z,3.72
2023-01-07T04:06:29.715Z,3.75
2023-01-07T04:08:56.176Z,5.82
2023-01-07T04:11:22.707Z,3.85
2023-01-07T04:13:49.171Z,4.28
2023-01-07T04:16:15.716Z,3.35
2023-01-07T04:18:42.254Z,5.18
2023-01-07T04:21:08.752Z,5.93
2023-01-07T04:23:35.271Z,5.47
2023-01-07T04:26:01.805Z,4.40
2023-01-07T04:28:28.349Z,5.85
2023-01-07T04:30:55.078Z,5.57
2023-01-07T04:33:21.569Z,4.20
2023-01-07T04:35:48.666Z,5.85
2023-01-07T04:38:15.136Z,5.43
2023-01-07T04:40:41.745Z,4.57
2023-01-07T04:43:09.626Z,4.80
2023-01-07T04:45:36.187Z,6.55
2023-01-07T04:48:03.281Z,3.90
2023-01-07T04:50:29.835Z,5.05
2023-01-07T04:52:56.357Z,5.45
2023-01-07T04:55:23.315Z,5.03
2023-01-07T04:57:49.880Z,6.75
2023-01-07T05:00:16.605Z,9.73
2023-01-07T05:02:43.109Z,4.53
2023-01-07T05:05:10.144Z,5.32
2023-01-07T05:07:36.972Z,5.90
2023-01-07T05:10:04.112Z,6.00
2023-01-07T05:12:34.328Z,5.45
2023-01-07T05:15:02.005Z,6.40
2023-01-07T05:17:28.845Z,7.63
2023-01-07T05:19:55.379Z,4.78
2023-01-07T05:22:22.031Z,4.72
2023-01-07T05:24:48.687Z,4.20
2023-01-07T05:27:15.343Z,5.55
2023-01-07T05:29:42.039Z,5.72
2023-01-07T05:32:08.659Z,4.28
2023-01-07T05:34:35.285Z,3.53
2023-01-07T05:37:01.783Z,5.90
2023-01-07T05:39:28.301Z,6.13
2023-01-07T05:41:54.922Z,7.00
2023-01-07T05:44:21.411Z,4.25
2023-01-07T05:46:47.918Z,5.00
2023-01-07T05:49:14.535Z,6.28
2023-01-07T05:51:41.069Z,4.95
2023-01-07T05:54:07.804Z,5.95
2023-01-07T05:56:35.075Z,6.38
2023-01-07T05:59:02.264Z,5.50
2023-01-07T06:01:28.901Z,4.90
2023-01-07T06:03:55.508Z,3.78
2023-01-07T06:06:22.115Z,4.50
2023-01-07T06:08:48.694Z,4.65
2023-01-07T06:11:15.170Z,4.07
2023-01-07T06:13:41.656Z,5.60
2023-01-07T06:16:10.198Z,5.15
2023-01-07T06:18:36.971Z,4.78
2023-01-07T06:21:03.617Z,5.57
2023-01-07T06:23:31.342Z,5.72
2023-01-07T06:25:57.937Z,4.22
2023-01-07T06:28:24.447Z,4.57
2023-01-07T06:30:51.062Z,5.63
2023-01-07T06:33:17.616Z,4.20
2023-01-07T06:35:46.032Z,5.15
2023-01-07T06:38:13.168Z,6.90
2023-01-07T06:40:39.790Z,4.60
2023-01-07T06:43:06.413Z,3.95
2023-01-07T06:45:32.890Z,4.35
2023-01-07T06:47:59.594Z,2.60
2023-01-07T06:50:26.230Z,2.92
2023-01-07T06:52:52.920Z,3.33
2023-01-07T06:55:19.445Z,3.88
2023-01-07T06:57:46.016Z,3.42
2023-01-07T07:00:13.076Z,4.68
2023-01-07T07:02:39.766Z,5.38
2023-01-07T07:05:06.536Z,3.63
2023-01-07T07:07:33.169Z,3.97
2023-01-07T07:09:59.711Z,4.20
2023-01-07T07:12:26.230Z,4.55
2023-01-07T07:14:52.706Z,3.65
2023-01-07T07:17:19.224Z,5.70
2023-01-07T07:19:45.731Z,8.18
2023-01-07T07:22:12.267Z,5.80
2023-01-07T07:24:38.906Z,6.10
2023-01-07T07:27:05.355Z,7.35
2023-01-07T07:29:31.938Z,6.25
2023-01-07T07:31:58.451Z,6.35
2023-01-07T07:34:25.110Z,4.63
2023-01-07T07:36:51.661Z,5.38
2023-01-07T07:39:18.187Z,6.53
2023-01-07T07:41:44.687Z,3.92
2023-01-07T07:44:11.275Z,5.28
2023-01-07T07:46:37.889Z,5.55
2023-01-07T07:49:06.069Z,7.22
2023-01-07T07:51:32.994Z,5.72
2023-01-07T07:53:59.514Z,4.00
2023-01-07T07:56:26.023Z,4.28
2023-01-07T07:58:52.528Z,4.00
2023-01-07T08:01:19.104Z,5.13
2023-01-07T08:03:45.758Z,4.82
2023-01-07T08:06:13.010Z,5.05
2023-01-07T08:08:39.559Z,4.25
2023-01-07T08:11:06.127Z,5.43
2023-01-07T08:13:32.655Z,5.10
2023-01-07T08:15:59.242Z,5.20
2023-01-07T08:18:25.830Z,4.50
2023-01-07T08:20:52.435Z,3.70
2023-01-07T08:23:19.095Z,4.03
2023-01-07T08:25:45.647Z,4.18
2023-01-07T08:28:12.182Z,4.30
2023-01-07T08:30:38.782Z,3.83
2023-01-07T08:33:07.766Z,6.45
2023-01-07T08:35:35.048Z,3.92
2023-01-07T08:38:08.536Z,5.40
2023-01-07T08:40:36.569Z,3.20
2023-01-07T08:43:05.319Z,3.63
2023-01-07T08:45:32.637Z,5.25
2023-01-07T08:47:59.785Z,2.28
2023-01-07T08:50:28.965Z,2.10
2023-01-07T08:52:55.606Z,2.42
2023-01-07T08:55:22.407Z,1.85
2023-01-07T08:57:50.467Z,1.90
2023-01-07T09:00:18.801Z,1.17
2023-01-07T09:02:45.592Z,1.48
2023-01-07T09:05:12.342Z,1.92
2023-01-07T09:07:38.918Z,1.98
2023-01-07T09:10:06.401Z,1.77
2023-01-07T09:12:33.058Z,1.73
2023-01-07T09:14:59.532Z,1.67
2023-01-07T09:17:26.238Z,1.50
2023-01-07T09:19:52.730Z,1.40
2023-01-07T09:22:19.400Z,1.80
2023-01-07T09:24:47.867Z,1.25
2023-01-07T09:27:16.708Z,2.15
2023-01-07T09:29:43.598Z,1.27
2023-01-07T09:32:11.009Z,1.13
2023-01-07T09:34:38.473Z,2.53
2023-01-07T09:37:06.497Z,2.22
2023-01-07T09:39:36.531Z,1.63
2023-01-07T09:42:09.739Z,2.22
2023-01-07T09:45:08.537Z,1.17
2023-01-07T09:47:44.555Z,1.77
2023-01-07T09:50:21.808Z,1.80
2023-01-07T09:53:05.400Z,3.58
2023-01-07T09:55:35.418Z,2.38
2023-01-07T09:58:43.226Z,1.60
2023-01-07T10:01:25.087Z,2.20
2023-01-07T10:04:28.856Z,2.25
2023-01-07T10:07:25.513Z,1.67
2023-01-07T10:10:12.756Z,2.40
2023-01-07T10:12:48.183Z,2.22
2023-01-07T10:15:34.778Z,1.38
2023-01-07T10:18:19.956Z,2.78
2023-01-07T10:20:57.042Z,3.30
2023-01-07T10:23:37.912Z,3.47
2023-01-07T10:26:12.138Z,2.65
2023-01-07T10:29:08.016Z,1.25
2023-01-07T10:31:38.903Z,1.23
2023-01-07T10:34:19.763Z,2.00
2023-01-07T10:37:02.219Z,2.42
2023-01-07T10:40:02.840Z,2.70
2023-01-07T10:42:39.876Z,2.20
2023-01-07T10:45:30.712Z,1.15
2023-01-07T10:48:12.548Z,2.85
2023-01-07T10:51:07.551Z,1.65
2023-01-07T10:54:03.029Z,1.65
2023-01-07T10:56:37.444Z,2.33
2023-01-07T10:59:04.454Z,2.20
2023-01-07T11:01:40.050Z,1.45
2023-01-07T11:04:15.201Z,2.80
2023-01-07T11:06:58.549Z,2.90
2023-01-07T11:09:32.396Z,2.97
2023-01-07T11:12:08.542Z,1.10
2023-01-07T11:14:41.050Z,1.33
2023-01-07T11:17:26.195Z,1.77
2023-01-07T11:19:52.893Z,2.90
2023-01-07T11:22:25.484Z,2.95
2023-01-07T11:24:56.169Z,3.05
2023-01-07T11:30:10.389Z,1.00
2023-01-07T11:32:43.146Z,2.55
2023-01-07T11:35:15.631Z,2.13
2023-01-07T11:37:47.173Z,1.75
2023-01-07T11:40:13.739Z,2.92
2023-01-07T11:42:52.485Z,1.73
2023-01-07T11:45:25.624Z,1.85
2023-01-07T11:48:00.276Z,1.50
2023-01-07T11:50:41.420Z,1.38
2023-01-07T11:53:13.907Z,1.83
2023-01-07T11:55:57.598Z,2.28
2023-01-07T11:58:29.306Z,2.08
2023-01-07T12:01:12.337Z,2.42
2023-01-07T12:03:43.452Z,1.45
2023-01-07T12:06:19.089Z,1.83
2023-01-07T12:08:56.230Z,1.50
2023-01-07T12:11:29.940Z,1.23
2023-01-07T12:13:57.908Z,2.00
2023-01-07T12:16:28.967Z,2.42
2023-01-07T12:19:17.220Z,1.20
2023-01-07T12:22:07.123Z,2.85
2023-01-07T12:24:46.108Z,2.87
2023-01-07T12:27:31.342Z,4.60
2023-01-07T12:30:14.637Z,3.42
2023-01-07T12:32:41.312Z,1.60
2023-01-07T12:35:26.015Z,2.58
2023-01-07T12:38:14.179Z,2.50
2023-01-07T12:40:51.866Z,2.80
2023-01-07T12:43:21.046Z,1.30
2023-01-07T12:46:02.578Z,1.27
2023-01-07T12:48:41.728Z,1.77
2023-01-07T12:51:16.668Z,1.75
2023-01-07T12:53:59.868Z,2.53
2023-01-07T12:56:46.625Z,1.52
2023-01-07T12:59:46.256Z,1.95
2023-01-07T13:02:20.178Z,2.92
2023-01-07T13:05:00.514Z,2.97
2023-01-07T13:07:48.738Z,2.20
2023-01-07T13:10:22.050Z,2.00
2023-01-07T13:12:52.232Z,3.05
2023-01-07T13:15:29.687Z,1.92
2023-01-07T13:18:12.603Z,1.88
2023-01-07T13:20:57.525Z,2.22
2023-01-07T13:23:49.047Z,2.47
2023-01-07T13:26:32.621Z,2.85
2023-01-07T13:29:11.269Z,3.60
2023-01-07T13:32:08.590Z,2.20
2023-01-07T13:35:12.673Z,5.43
2023-01-07T13:38:36.517Z,4.55
2023-01-07T13:41:54.291Z,3.33
2023-01-07T13:45:01.697Z,3.35
2023-01-07T13:47:50.719Z,2.53
2023-01-07T13:50:33.398Z,2.97
2023-01-07T13:53:04.024Z,3.20
2023-01-07T13:57:59.303Z,5.13
2023-01-07T14:00:38.039Z,3.95
2023-01-07T14:03:04.909Z,3.00
2023-01-07T14:05:31.470Z,2.70
2023-01-07T14:08:04.025Z,4.05
2023-01-07T14:10:33.567Z,3.08
2023-01-07T14:13:32.872Z,1.88
2023-01-07T14:16:12.751Z,2.17
2023-01-07T14:18:55.821Z,6.05
2023-01-07T14:21:42.363Z,3.50
2023-01-07T14:24:22.805Z,5.50
2023-01-07T14:27:21.322Z,2.85
2023-01-07T14:29:51.271Z,6.15
2023-01-07T14:32:34.274Z,2.38
2023-01-07T14:35:07.971Z,3.08
2023-01-07T14:37:46.925Z,2.67
2023-01-07T14:40:25.604Z,2.40
2023-01-07T14:42:53.911Z,2.42
2023-01-07T14:45:39.173Z,2.65
2023-01-07T14:48:08.678Z,2.80
2023-01-07T14:50:43.871Z,3.80
2023-01-07T14:53:13.001Z,2.17
2023-01-07T14:56:01.259Z,2.28
2023-01-07T14:58:50.925Z,2.28
2023-01-07T15:01:59.590Z,3.22
2023-01-07T15:04:35.172Z,4.03
2023-01-07T15:07:03.384Z,1.80
2023-01-07T15:10:05.767Z,2.38
2023-01-07T15:12:55.273Z,2.17
2023-01-07T15:15:43.724Z,2.45
2023-01-07T15:18:12.073Z,2.55
2023-01-07T15:21:19.193Z,3.13
2023-01-07T15:24:15.051Z,4.57
2023-01-07T15:27:13.086Z,4.40
2023-01-07T15:29:57.617Z,3.10
2023-01-07T15:32:37.963Z,3.92
2023-01-07T15:35:14.816Z,3.15
2023-01-07T15:37:48.812Z,2.38
2023-01-07T15:40:21.221Z,3.03
2023-01-07T15:42:51.730Z,2.55
2023-01-07T15:45:21.102Z,2.10
2023-01-07T15:47:48.070Z,4.07
2023-01-07T15:50:21.552Z,3.08
2023-01-07T15:52:50.421Z,3.42
2023-01-07T15:55:30.509Z,2.72
2023-01-07T15:58:03.593Z,3.28
2023-01-07T16:00:30.443Z,5.95
2023-01-07T16:02:57.809Z,2.50
2023-01-07T16:05:27.966Z,3.03
2023-01-07T16:07:57.863Z,3.97
2023-01-07T16:10:28.434Z,4.40
2023-01-07T16:12:57.495Z,6.35
2023-01-07T16:15:28.187Z,4.35
2023-01-07T16:20:43.841Z,3.88
2023-01-07T16:23:17.043Z,4.40
2023-01-07T16:25:46.989Z,5.53
2023-01-07T16:28:24.418Z,2.92
2023-01-07T16:30:52.948Z,3.17
2023-01-07T16:33:22.659Z,2.40
2023-01-07T16:35:51.318Z,3.87
2023-01-07T16:38:22.424Z,4.00
2023-01-07T16:40:50.887Z,3.50
2023-01-07T16:43:33.344Z,4.25
2023-01-07T16:46:27.261Z,3.10
2023-01-07T16:49:09.086Z,5.13
2023-01-07T16:51:39.996Z,3.47
2023-01-07T16:54:25.975Z,4.43
2023-01-07T16:56:55.505Z,5.57
2023-01-07T16:59:27.497Z,2.92
2023-01-07T17:01:54.899Z,4.70
2023-01-07T17:04:35.007Z,5.95
2023-01-07T17:07:03.000Z,3.47
2023-01-07T17:09:38.926Z,4.75
2023-01-07T17:12:06.372Z,3.53
2023-01-07T17:14:34.000Z,2.95
2023-01-07T17:17:20.904Z,2.63
2023-01-07T17:20:19.172Z,3.35
2023-01-07T17:22:47.349Z,4.55
2023-01-07T17:25:15.416Z,3.67
2023-01-07T17:27:58.718Z,4.68
2023-01-07T17:30:35.535Z,4.68
2023-01-07T17:33:03.094Z,4.38
2023-01-07T17:35:29.785Z,4.88
2023-01-07T17:37:56.951Z,3.15
2023-01-07T17:40:23.718Z,2.75
2023-01-07T17:43:09.239Z,4.38
2023-01-07T17:45:35.956Z,5.00
2023-01-07T17:48:02.868Z,3.65
2023-01-07T17:50:46.958Z,3.65
2023-01-07T17:53:23.574Z,4.47
2023-01-07T17:55:50.308Z,5.07
2023-01-07T17:58:30.424Z,4.55
2023-01-07T18:00:59.081Z,5.07
2023-01-07T18:03:26.601Z,4.55
2023-01-07T18:05:53.295Z,5.53
2023-01-07T18:08:19.990Z,5.55
2023-01-07T18:11:05.304Z,4.75
2023-01-07T18:13:32.285Z,4.45
2023-01-07T18:15:59.108Z,5.53
2023-01-07T18:18:28.508Z,6.97
2023-01-07T18:21:05.671Z,5.93
2023-01-07T18:23:32.370Z,6.95
2023-01-07T18:25:59.896Z,5.22
2023-01-07T18:28:26.613Z,5.20
2023-01-07T18:30:53.184Z,5.82
2023-01-07T18:33:19.804Z,6.95
2023-01-07T18:35:47.500Z,6.25
2023-01-07T18:38:15.709Z,5.05
2023-01-07T18:40:43.289Z,7.78
2023-01-07T18:43:15.063Z,9.13
2023-01-07T18:45:43.479Z,7.57
2023-01-07T18:48:12.708Z,8.35
2023-01-07T18:50:46.873Z,12.60
2023-01-07T18:53:14.275Z,9.27
2023-01-07T18:55:42.930Z,10.50
2023-01-07T18:58:13.708Z,12.73
2023-01-07T19:00:41.492Z,9.73
2023-01-07T19:03:09.055Z,11.43
2023-01-07T19:05:40.357Z,10.68
2023-01-07T19:08:08.204Z,9.80
2023-01-07T19:10:34.824Z,8.82
2023-01-07T19:13:01.690Z,9.23
2023-01-07T19:15:28.477Z,7.82
2023-01-07T19:17:55.105Z,8.25
2023-01-07T19:20:21.675Z,7.75
2023-01-07T19:22:48.473Z,8.07
2023-01-07T19:25:15.240Z,7.93
2023-01-07T19:27:41.816Z,7.40
2023-01-07T19:30:10.114Z,7.90
2023-01-07T19:32:36.769Z,6.97
2023-01-07T19:35:03.529Z,9.00
2023-01-07T19:37:30.337Z,8.65
2023-01-07T19:39:57.146Z,8.40
2023-01-07T19:42:24.296Z,9.75
2023-01-07T19:44:51.278Z,9.23
2023-01-07T19:47:18.016Z,10.50
2023-01-07T19:49:50.640Z,7.40
2023-01-07T19:52:17.679Z,8.98
2023-01-07T19:54:45.124Z,11.70
2023-01-07T19:57:14.660Z,10.73
2023-01-07T19:59:41.591Z,11.93
2023-01-07T20:02:08.300Z,9.38
2023-01-07T20:04:35.053Z,11.90
2023-01-07T20:07:01.763Z,9.50
2023-01-07T20:09:28.617Z,9.38
2023-01-07T20:11:55.222Z,11.43
2023-01-07T20:14:21.804Z,9.35
2023-01-07T20:16:49.028Z,9.98
2023-01-07T20:19:16.079Z,10.15
2023-01-07T20:21:43.198Z,12.00
2023-01-07T20:24:12.455Z,10.82
2023-01-07T20:26:39.140Z,8.60
2023-01-07T20:29:05.649Z,9.18
2023-01-07T20:31:32.128Z,11.48
2023-01-07T20:33:59.465Z,11.52
2023-01-07T20:36:29.165Z,8.63
2023-01-07T20:38:55.898Z,12.77
2023-01-07T20:41:25.956Z,9.75
2023-01-07T20:43:58.141Z,11.80
2023-01-07T20:46:26.906Z,11.93
2023-01-07T20:48:53.711Z,12.80
2023-01-07T20:51:20.351Z,13.32
2023-01-07T20:53:47.848Z,14.15
2023-01-07T20:56:18.096Z,11.50
2023-01-07T20:58:45.407Z,13.95
2023-01-07T21:01:14.961Z,11.25
2023-01-07T21:03:42.416Z,14.45
2023-01-07T21:06:11.160Z,12.85
2023-01-07T21:08:38.383Z,13.70
2023-01-07T21:11:10.947Z,12.70
2023-01-07T21:13:37.583Z,14.48
2023-01-07T21:16:04.899Z,11.75
2023-01-07T21:18:33.575Z,12.18
2023-01-07T21:21:01.939Z,13.60
2023-01-07T21:23:31.280Z,11.77
2023-01-07T21:25:58.091Z,13.95
2023-01-07T21:28:25.833Z,13.32
2023-01-07T21:30:52.513Z,11.98
2023-01-07T21:33:19.218Z,14.45
2023-01-07T21:35:45.954Z,12.68
2023-01-07T21:38:14.945Z,16.00
2023-01-07T21:40:41.518Z,13.85
2023-01-07T21:43:08.164Z,10.90
2023-01-07T21:45:36.772Z,13.10
2023-01-07T21:48:03.570Z,13.50
2023-01-07T21:50:30.325Z,13.27
2023-01-07T21:52:57.364Z,13.02
2023-01-07T21:55:23.881Z,14.93
2023-01-07T21:57:50.710Z,13.70
2023-01-07T22:00:17.539Z,12.93
2023-01-07T22:02:44.754Z,15.55
2023-01-07T22:05:12.082Z,13.82
2023-01-07T22:07:39.264Z,17.42
2023-01-07T22:10:06.583Z,13.55
2023-01-07T22:12:33.284Z,16.38
2023-01-07T22:15:00.262Z,15.18
2023-01-07T22:17:26.925Z,16.00
2023-01-07T22:19:53.465Z,16.88
2023-01-07T22:22:21.019Z,15.02
2023-01-07T22:24:47.752Z,18.35
2023-01-07T22:27:14.315Z,17.38
2023-01-07T22:29:42.368Z,15.43
2023-01-07T22:32:09.118Z,15.50
2023-01-07T22:34:35.869Z,14.40
2023-01-07T22:37:15.285Z,12.75
2023-01-07T22:39:46.241Z,13.05
2023-01-07T22:42:17.689Z,15.15
2023-01-07T22:44:57.786Z,12.38
2023-01-07T22:47:29.193Z,15.07
2023-01-07T22:49:56.951Z,11.85
2023-01-07T22:52:23.643Z,13.63
2023-01-07T22:54:50.319Z,12.63
2023-01-07T22:57:16.999Z,12.82
2023-01-07T22:59:45.689Z,14.05
2023-01-07T23:02:13.520Z,11.98
2023-01-07T23:04:40.819Z,12.13
2023-01-07T23:07:07.416Z,10.05
2023-01-07T23:09:33.982Z,13.95
2023-01-07T23:12:00.881Z,8.88
2023-01-07T23:14:29.813Z,10.98
2023-01-07T23:16:57.198Z,9.43
2023-01-07T23:19:23.681Z,9.70
2023-01-07T23:21:52.922Z,11.38
2023-01-07T23:24:20.414Z,10.20
2023-01-07T23:26:51.325Z,10.40
2023-01-07T23:29:18.635Z,10.05
2023-01-07T23:31:45.678Z,8.50
2023-01-07T23:34:13.415Z,10.30
2023-01-07T23:36:39.936Z,7.75
2023-01-07T23:39:06.872Z,8.88
2023-01-07T23:41:33.603Z,9.00
2023-01-07T23:44:00.083Z,8.50
2023-01-07T23:46:26.621Z,8.02
2023-01-07T23:48:53.065Z,8.60
2023-01-07T23:51:21.174Z,8.35
2023-01-07T23:53:48.072Z,7.82
2023-01-07T23:56:17.755Z,8.98
2023-01-07T23:58:44.213Z,7.78
